createdAt,value
2022-09-12T00:01:19.376Z,12.80
2022-09-12T00:03:47.134Z,12.02
2022-09-12T00:08:50.740Z,12.40
2022-09-12T00:13:44.582Z,11.88
2022-09-12T00:16:17.299Z,11.27
2022-09-12T00:18:46.852Z,11.43
2022-09-12T00:21:15.432Z,12.35
2022-09-12T00:23:42.508Z,12.63
2022-09-12T00:26:10.258Z,11.75
2022-09-12T00:28:39.242Z,12.65
2022-09-12T00:31:08.841Z,12.57
2022-09-12T00:33:36.689Z,12.18
2022-09-12T00:36:15.583Z,12.80
2022-09-12T00:38:44.203Z,13.93
2022-09-12T00:41:15.638Z,12.57
2022-09-12T00:43:46.028Z,12.73
2022-09-12T00:46:35.680Z,13.02
2022-09-12T00:49:29.175Z,11.52
2022-09-12T00:52:03.555Z,12.20
2022-09-12T00:54:45.308Z,11.25
2022-09-12T00:57:15.883Z,11.55
2022-09-12T00:59:55.199Z,11.23
2022-09-12T01:02:22.971Z,11.25
2022-09-12T01:04:50.384Z,11.02
2022-09-12T01:07:17.696Z,9.93
2022-09-12T01:09:45.904Z,11.43
2022-09-12T01:12:14.968Z,10.65
2022-09-12T01:14:42.621Z,10.38
2022-09-12T01:20:04.480Z,10.45
2022-09-12T01:22:52.072Z,12.43
2022-09-12T01:25:48.761Z,11.10
2022-09-12T01:28:38.173Z,12.23
2022-09-12T01:31:29.870Z,11.65
2022-09-12T01:34:18.055Z,12.90
2022-09-12T01:37:09.212Z,13.23
2022-09-12T01:39:39.242Z,12.38
2022-09-12T01:42:24.494Z,13.95
2022-09-12T01:45:11.532Z,13.27
2022-09-12T01:47:53.785Z,12.07
2022-09-12T01:50:30.190Z,13.85
2022-09-12T01:53:42.221Z,11.98
2022-09-12T01:56:15.522Z,11.25
2022-09-12T01:58:54.826Z,12.57
2022-09-12T02:01:29.551Z,13.38
2022-09-12T02:04:18.274Z,13.32
2022-09-12T02:06:53.238Z,12.10
2022-09-12T02:09:27.982Z,12.73
2022-09-12T02:11:58.713Z,14.02
2022-09-12T02:14:33.938Z,13.52
2022-09-12T02:17:04.009Z,11.93
2022-09-12T02:19:36.402Z,12.43
2022-09-12T02:22:06.476Z,12.68
2022-09-12T02:24:40.308Z,12.27
2022-09-12T02:27:18.357Z,12.23
2022-09-12T02:29:46.068Z,11.35
2022-09-12T02:32:30.032Z,11.05
2022-09-12T02:35:07.301Z,11.52
2022-09-12T02:37:52.453Z,11.57
2022-09-12T02:40:19.596Z,11.88
2022-09-12T02:42:46.716Z,13.00
2022-09-12T02:45:13.986Z,12.93
2022-09-12T02:47:44.377Z,12.77
2022-09-12T02:50:11.944Z,11.75
2022-09-12T02:52:39.816Z,10.93
2022-09-12T02:57:34.028Z,11.15
2022-09-12T03:00:02.221Z,12.15
2022-09-12T03:02:55.077Z,11.55
2022-09-12T03:05:51.472Z,10.93
2022-09-12T03:08:24.189Z,11.32
2022-09-12T03:11:19.697Z,11.25
2022-09-12T03:14:05.943Z,11.98
2022-09-12T03:16:46.972Z,11.32
2022-09-12T03:19:23.779Z,11.20
2022-09-12T03:21:57.695Z,11.43
2022-09-12T03:24:38.441Z,10.45
2022-09-12T03:27:24.588Z,12.23
2022-09-12T03:29:52.935Z,11.40
2022-09-12T03:32:19.773Z,11.35
2022-09-12T03:34:46.739Z,11.25
2022-09-12T03:37:13.573Z,12.07
2022-09-12T03:39:41.005Z,11.43
2022-09-12T03:42:08.053Z,10.48
2022-09-12T03:44:35.110Z,11.70
2022-09-12T03:47:02.165Z,12.73
2022-09-12T03:49:29.062Z,13.45
2022-09-12T03:51:55.898Z,14.07
2022-09-12T03:54:23.233Z,12.95
2022-09-12T03:56:50.234Z,13.18
2022-09-12T03:59:17.231Z,13.00
2022-09-12T04:01:44.195Z,13.40
2022-09-12T04:04:11.319Z,13.27
2022-09-12T04:06:38.148Z,12.63
2022-09-12T04:09:05.538Z,13.50
2022-09-12T04:11:32.396Z,13.73
2022-09-12T04:13:59.485Z,13.82
2022-09-12T04:16:26.473Z,11.68
2022-09-12T04:18:54.573Z,13.23
2022-09-12T04:21:22.397Z,11.75
2022-09-12T04:23:50.094Z,12.63
2022-09-12T04:26:18.901Z,12.35
2022-09-12T04:28:46.635Z,13.88
2022-09-12T04:31:18.067Z,13.15
2022-09-12T04:33:46.768Z,12.25
2022-09-12T04:36:16.854Z,13.20
2022-09-12T04:38:45.516Z,12.45
2022-09-12T04:41:23.136Z,13.43
2022-09-12T04:44:02.381Z,13.35
2022-09-12T04:46:31.858Z,12.55
2022-09-12T04:48:59.604Z,13.80
2022-09-12T04:54:01.887Z,11.70
2022-09-12T04:56:29.869Z,11.25
2022-09-12T04:58:58.640Z,12.38
2022-09-12T05:01:27.000Z,11.80
2022-09-12T05:03:54.999Z,12.07
2022-09-12T05:06:25.096Z,12.32
2022-09-12T05:08:53.227Z,11.18
2022-09-12T05:11:36.721Z,12.82
2022-09-12T05:14:04.412Z,13.02
2022-09-12T05:16:35.688Z,11.27
2022-09-12T05:19:03.212Z,11.77
2022-09-12T05:21:30.249Z,12.80
2022-09-12T05:24:01.188Z,11.43
2022-09-12T05:26:28.631Z,11.75
2022-09-12T05:28:58.340Z,12.18
2022-09-12T05:31:27.492Z,12.65
2022-09-12T05:33:56.407Z,12.25
2022-09-12T05:36:29.506Z,12.05
2022-09-12T05:38:57.462Z,11.80
2022-09-12T05:41:37.700Z,11.02
2022-09-12T05:44:06.976Z,11.02
2022-09-12T05:46:45.693Z,10.38
2022-09-12T05:49:14.689Z,10.27
2022-09-12T05:51:45.289Z,10.98
2022-09-12T05:54:15.012Z,10.65
2022-09-12T05:56:47.728Z,10.10
2022-09-12T05:59:17.876Z,10.23
2022-09-12T06:01:45.441Z,10.25
2022-09-12T06:04:15.073Z,9.80
2022-09-12T06:06:47.680Z,11.05
2022-09-12T06:09:16.727Z,9.50
2022-09-12T06:11:47.956Z,9.90
2022-09-12T06:14:18.003Z,9.05
2022-09-12T06:16:45.380Z,10.88
2022-09-12T06:19:20.393Z,9.60
2022-09-12T06:21:49.672Z,9.15
2022-09-12T06:24:18.529Z,9.45
2022-09-12T06:26:47.669Z,9.68
2022-09-12T06:29:15.623Z,9.10
2022-09-12T06:31:44.330Z,8.93
2022-09-12T06:34:14.418Z,9.25
2022-09-12T06:36:44.844Z,8.60
2022-09-12T06:39:14.917Z,9.02
2022-09-12T06:41:44.251Z,8.65
2022-09-12T06:44:16.950Z,8.93
2022-09-12T06:46:45.544Z,8.95
2022-09-12T06:54:12.162Z,10.55
2022-09-12T06:56:39.715Z,7.93
2022-09-12T06:59:06.873Z,9.73
2022-09-12T07:01:34.534Z,9.32
2022-09-12T07:04:04.004Z,8.35
2022-09-12T07:06:36.800Z,7.72
2022-09-12T07:09:06.398Z,7.60
2022-09-12T07:11:40.959Z,8.45
2022-09-12T07:14:10.795Z,8.82
2022-09-12T07:16:38.080Z,8.35
2022-09-12T07:19:06.956Z,7.45
2022-09-12T07:21:38.966Z,7.85
2022-09-12T07:24:06.902Z,8.60
2022-09-12T07:26:34.051Z,8.75
2022-09-12T07:29:25.107Z,9.05
2022-09-12T07:34:18.119Z,8.25
2022-09-12T07:36:45.367Z,9.48
2022-09-12T07:39:12.353Z,8.15
2022-09-12T07:41:42.223Z,7.35
2022-09-12T07:44:09.348Z,8.13
2022-09-12T07:46:36.377Z,8.68
2022-09-12T07:49:08.232Z,9.77
2022-09-12T07:51:35.869Z,10.15
2022-09-12T07:54:07.040Z,9.27
2022-09-12T07:56:38.693Z,8.20
2022-09-12T07:59:06.691Z,7.70
2022-09-12T08:01:33.727Z,9.35
2022-09-12T08:04:01.517Z,13.15
2022-09-12T08:06:32.138Z,8.63
2022-09-12T08:08:59.785Z,7.35
2022-09-12T08:11:28.942Z,9.15
2022-09-12T08:13:58.117Z,11.70
2022-09-12T08:16:28.580Z,9.93
2022-09-12T08:18:55.823Z,8.48
2022-09-12T08:21:28.579Z,7.78
2022-09-12T08:24:06.325Z,9.50
2022-09-12T08:26:34.308Z,8.25
2022-09-12T08:29:04.903Z,8.13
2022-09-12T08:31:36.359Z,8.32
2022-09-12T08:34:07.003Z,8.45
2022-09-12T08:36:35.823Z,8.00
2022-09-12T08:39:07.114Z,8.15
2022-09-12T08:41:49.792Z,8.82
2022-09-12T08:44:22.163Z,8.07
2022-09-12T08:47:46.095Z,7.25
2022-09-12T08:50:18.177Z,8.90
2022-09-12T08:53:03.372Z,8.88
2022-09-12T08:55:42.350Z,9.02
2022-09-12T08:58:19.620Z,8.35
2022-09-12T09:03:47.420Z,8.57
2022-09-12T09:06:29.503Z,9.63
2022-09-12T09:09:11.883Z,8.95
2022-09-12T09:11:54.650Z,9.63
2022-09-12T09:14:49.445Z,8.73
2022-09-12T09:17:22.432Z,9.20
2022-09-12T09:20:17.539Z,9.48
2022-09-12T09:22:56.949Z,8.48
2022-09-12T09:25:40.976Z,8.88
2022-09-12T09:28:19.318Z,9.32
2022-09-12T09:30:47.023Z,9.32
2022-09-12T09:35:58.203Z,8.75
2022-09-12T09:38:51.053Z,8.40
2022-09-12T09:41:33.051Z,9.48
2022-09-12T09:44:01.021Z,9.48
2022-09-12T09:46:28.376Z,9.98
2022-09-12T09:48:56.299Z,8.60
2022-09-12T09:51:36.004Z,9.40
2022-09-12T09:54:23.202Z,10.27
2022-09-12T09:56:51.162Z,9.35
2022-09-12T09:59:36.156Z,9.07
2022-09-12T10:02:13.704Z,9.48
2022-09-12T10:04:52.734Z,9.57
2022-09-12T10:07:21.735Z,9.30
2022-09-12T10:10:19.809Z,8.57
2022-09-12T10:12:46.866Z,9.20
2022-09-12T10:15:29.520Z,9.05
2022-09-12T10:17:56.551Z,8.80
2022-09-12T10:20:34.657Z,8.02
2022-09-12T10:23:18.876Z,8.00
2022-09-12T10:25:48.898Z,7.43
2022-09-12T10:28:27.258Z,8.60
2022-09-12T10:30:56.005Z,7.47
2022-09-12T10:33:25.480Z,7.95
2022-09-12T10:35:55.095Z,7.15
2022-09-12T10:38:28.068Z,7.75
2022-09-12T10:41:06.557Z,6.15
2022-09-12T10:43:33.778Z,5.85
2022-09-12T10:49:11.851Z,5.97
2022-09-12T10:51:38.797Z,5.03
2022-09-12T10:54:10.112Z,6.03
2022-09-12T10:56:44.487Z,6.20
2022-09-12T10:59:24.205Z,5.28
2022-09-12T11:01:57.564Z,5.40
2022-09-12T11:04:28.955Z,5.72
2022-09-12T11:07:03.618Z,5.13
2022-09-12T11:10:04.082Z,4.95
2022-09-12T11:12:53.630Z,5.75
2022-09-12T11:15:31.725Z,4.88
2022-09-12T11:18:27.432Z,5.55
2022-09-12T11:21:10.135Z,5.88
2022-09-12T11:23:56.123Z,4.93
2022-09-12T11:26:32.006Z,5.27
2022-09-12T11:29:12.483Z,4.70
2022-09-12T11:31:48.667Z,5.90
2022-09-12T11:34:25.477Z,5.23
2022-09-12T11:37:19.947Z,5.93
2022-09-12T11:39:53.414Z,6.13
2022-09-12T11:42:30.019Z,4.65
2022-09-12T11:45:06.123Z,4.38
2022-09-12T11:47:35.103Z,3.53
2022-09-12T11:50:12.713Z,4.15
2022-09-12T11:52:40.667Z,3.50
2022-09-12T11:55:31.710Z,3.90
2022-09-12T11:57:59.202Z,3.75
2022-09-12T12:00:41.256Z,3.20
2022-09-12T12:03:23.832Z,3.75
2022-09-12T12:06:16.959Z,3.60
2022-09-12T12:08:46.235Z,3.08
2022-09-12T12:11:16.615Z,3.50
2022-09-12T12:14:17.657Z,3.63
2022-09-12T12:16:45.205Z,3.03
2022-09-12T12:19:15.008Z,3.63
2022-09-12T12:21:49.103Z,3.78
2022-09-12T12:24:28.936Z,3.10
2022-09-12T12:26:58.914Z,3.72
2022-09-12T12:29:35.113Z,3.42
2022-09-12T12:32:02.085Z,3.33
2022-09-12T12:34:32.207Z,3.33
2022-09-12T12:37:31.139Z,2.90
2022-09-12T12:40:20.626Z,3.20
2022-09-12T12:42:48.154Z,2.75
2022-09-12T12:45:22.508Z,3.58
2022-09-12T12:48:28.573Z,3.75
2022-09-12T12:51:42.821Z,3.97
2022-09-12T12:54:32.365Z,3.30
2022-09-12T12:57:13.229Z,2.65
2022-09-12T13:00:30.562Z,3.22
2022-09-12T13:03:06.801Z,3.10
2022-09-12T13:05:52.466Z,4.20
2022-09-12T13:08:19.859Z,3.47
2022-09-12T13:11:29.550Z,3.50
2022-09-12T13:14:02.722Z,3.10
2022-09-12T13:16:36.783Z,3.53
2022-09-12T13:19:20.878Z,3.10
2022-09-12T13:22:02.240Z,3.53
2022-09-12T13:24:29.206Z,3.53
2022-09-12T13:26:57.801Z,3.00
2022-09-12T13:29:26.963Z,2.83
2022-09-12T13:32:03.440Z,3.25
2022-09-12T13:34:37.137Z,2.90
2022-09-12T13:37:24.991Z,3.22
2022-09-12T13:40:22.060Z,3.42
2022-09-12T13:43:14.372Z,3.83
2022-09-12T13:45:47.195Z,2.70
2022-09-12T13:48:20.483Z,2.45
2022-09-12T13:51:00.023Z,3.15
2022-09-12T13:53:32.119Z,3.38
2022-09-12T13:56:00.140Z,2.40
2022-09-12T13:58:31.143Z,2.63
2022-09-12T14:01:16.205Z,3.42
2022-09-12T14:04:13.704Z,2.72
2022-09-12T14:06:49.550Z,3.15
2022-09-12T14:09:25.355Z,2.40
2022-09-12T14:11:56.241Z,2.70
2022-09-12T14:14:31.454Z,2.85
2022-09-12T14:16:59.155Z,3.03
2022-09-12T14:19:30.009Z,2.63
2022-09-12T14:21:58.369Z,2.90
2022-09-12T14:24:25.818Z,2.88
2022-09-12T14:26:56.646Z,2.85
2022-09-12T14:29:25.173Z,2.88
2022-09-12T14:32:04.715Z,2.80
2022-09-12T14:34:31.976Z,3.13
2022-09-12T14:39:33.763Z,2.45
2022-09-12T14:42:14.268Z,2.90
2022-09-12T14:44:52.952Z,3.00
2022-09-12T14:47:26.331Z,2.55
2022-09-12T14:49:53.941Z,2.70
2022-09-12T14:52:37.182Z,3.10
2022-09-12T14:55:24.017Z,3.05
2022-09-12T15:00:36.668Z,3.30
2022-09-12T15:03:25.614Z,2.88
2022-09-12T15:05:53.027Z,3.10
2022-09-12T15:08:23.434Z,2.70
2022-09-12T15:10:52.088Z,3.10
2022-09-12T15:13:22.213Z,3.00
2022-09-12T15:15:54.705Z,2.78
2022-09-12T15:18:23.930Z,2.65
2022-09-12T15:20:57.363Z,2.72
2022-09-12T15:23:47.162Z,2.70
2022-09-12T15:26:17.055Z,2.70
2022-09-12T15:28:44.470Z,2.80
2022-09-12T15:33:47.684Z,2.75
2022-09-12T15:36:17.698Z,2.35
2022-09-12T15:38:45.825Z,2.50
2022-09-12T15:41:32.911Z,2.35
2022-09-12T15:43:59.725Z,2.55
2022-09-12T15:46:26.668Z,2.85
2022-09-12T15:48:53.422Z,2.65
2022-09-12T15:51:21.809Z,3.28
2022-09-12T15:53:50.048Z,2.63
2022-09-12T15:56:21.657Z,2.80
2022-09-12T15:58:58.660Z,2.75
2022-09-12T16:01:27.651Z,2.92
2022-09-12T16:03:54.659Z,2.40
2022-09-12T16:06:22.250Z,3.30
2022-09-12T16:08:49.582Z,3.10
2022-09-12T16:13:56.867Z,2.80
2022-09-12T16:16:23.965Z,3.33
2022-09-12T16:21:17.742Z,3.05
2022-09-12T16:23:45.836Z,3.28
2022-09-12T16:26:12.777Z,2.95
2022-09-12T16:28:43.058Z,3.08
2022-09-12T16:31:13.539Z,2.60
2022-09-12T16:33:41.046Z,3.03
2022-09-12T16:36:14.209Z,2.58
2022-09-12T16:38:52.118Z,2.33
2022-09-12T16:41:20.945Z,2.95
2022-09-12T16:43:48.478Z,2.70
2022-09-12T16:46:20.643Z,2.80
2022-09-12T16:48:52.433Z,2.92
2022-09-12T16:51:22.392Z,2.45
2022-09-12T16:53:52.756Z,2.63
2022-09-12T16:56:19.591Z,2.97
2022-09-12T16:58:46.541Z,2.60
2022-09-12T17:01:16.546Z,3.17
2022-09-12T17:03:43.780Z,2.70
2022-09-12T17:08:41.688Z,2.70
2022-09-12T17:11:19.273Z,2.75
2022-09-12T17:14:10.078Z,2.63
2022-09-12T17:16:41.712Z,3.00
2022-09-12T17:19:11.980Z,2.83
2022-09-12T17:21:38.986Z,2.78
2022-09-12T17:24:05.874Z,2.90
2022-09-12T17:26:33.175Z,2.65
2022-09-12T17:29:01.350Z,2.63
2022-09-12T17:31:31.218Z,2.65
2022-09-12T17:33:59.438Z,2.42
2022-09-12T17:36:32.095Z,2.80
2022-09-12T17:38:59.893Z,2.90
2022-09-12T17:41:31.980Z,2.80
2022-09-12T17:44:00.560Z,2.95
2022-09-12T17:46:35.646Z,2.80
2022-09-12T17:49:05.188Z,2.95
2022-09-12T17:51:32.144Z,3.40
2022-09-12T17:54:08.560Z,3.25
2022-09-12T17:56:37.213Z,2.70
2022-09-12T17:59:05.464Z,2.60
2022-09-12T18:01:54.270Z,2.70
2022-09-12T18:04:21.361Z,2.95
2022-09-12T18:06:48.906Z,2.85
2022-09-12T18:09:18.676Z,3.08
2022-09-12T18:11:48.151Z,3.03
2022-09-12T18:14:15.770Z,3.65
2022-09-12T18:16:43.463Z,3.40
2022-09-12T18:19:11.229Z,3.85
2022-09-12T18:21:38.425Z,3.40
2022-09-12T18:24:06.129Z,3.28
2022-09-12T18:26:33.175Z,4.10
2022-09-12T18:28:59.976Z,3.08
2022-09-12T18:31:30.943Z,3.45
2022-09-12T18:34:02.554Z,3.10
2022-09-12T18:36:29.990Z,3.15
2022-09-12T18:41:24.953Z,3.03
2022-09-12T18:43:59.726Z,3.83
2022-09-12T18:46:28.084Z,4.18
2022-09-12T18:48:57.582Z,3.90
2022-09-12T18:51:27.453Z,3.78
2022-09-12T18:53:56.343Z,3.70
2022-09-12T18:56:32.815Z,3.55
2022-09-12T18:59:00.973Z,4.20
2022-09-12T19:01:30.806Z,4.18
2022-09-12T19:03:58.987Z,3.53
2022-09-12T19:06:28.739Z,3.58
2022-09-12T19:08:56.947Z,3.75
2022-09-12T19:11:25.484Z,3.20
2022-09-12T19:13:53.449Z,3.45
2022-09-12T19:16:23.121Z,4.25
2022-09-12T19:18:52.264Z,4.38
2022-09-12T19:21:25.228Z,3.85
2022-09-12T19:23:53.483Z,4.13
2022-09-12T19:26:22.190Z,4.38
2022-09-12T19:28:49.342Z,4.55
2022-09-12T19:31:21.814Z,4.47
2022-09-12T19:33:49.805Z,5.18
2022-09-12T19:39:08.296Z,4.53
2022-09-12T19:41:35.875Z,5.15
2022-09-12T19:44:04.484Z,4.95
2022-09-12T19:46:32.543Z,5.45
2022-09-12T19:48:59.696Z,5.38
2022-09-12T19:51:26.563Z,4.22
2022-09-12T19:53:53.930Z,4.72
2022-09-12T19:56:21.159Z,3.67
2022-09-12T20:01:32.265Z,3.95
2022-09-12T20:03:59.818Z,3.97
2022-09-12T20:06:29.409Z,3.55
2022-09-12T20:08:56.786Z,3.78
2022-09-12T20:11:24.436Z,3.53
2022-09-12T20:13:53.508Z,4.30
2022-09-12T20:16:26.436Z,4.10
2022-09-12T20:18:56.258Z,4.15
2022-09-12T20:21:28.421Z,4.20
2022-09-12T20:23:55.554Z,4.00
2022-09-12T20:26:24.944Z,4.07
2022-09-12T20:28:52.571Z,4.28
2022-09-12T20:31:19.737Z,3.90
2022-09-12T20:33:51.613Z,4.13
2022-09-12T20:36:20.857Z,3.60
2022-09-12T20:38:53.388Z,4.20
2022-09-12T20:41:21.166Z,3.80
2022-09-12T20:43:52.876Z,4.20
2022-09-12T20:46:22.159Z,3.97
2022-09-12T20:48:50.627Z,4.20
2022-09-12T20:51:18.480Z,4.68
2022-09-12T20:53:45.910Z,4.80
2022-09-12T20:56:14.803Z,4.80
2022-09-12T20:58:44.662Z,4.88
2022-09-12T21:01:13.717Z,4.90
2022-09-12T21:03:42.600Z,4.32
2022-09-12T21:06:12.682Z,4.40
2022-09-12T21:08:40.520Z,4.45
2022-09-12T21:11:07.580Z,4.65
2022-09-12T21:13:35.240Z,4.15
2022-09-12T21:16:17.391Z,4.18
2022-09-12T21:18:44.990Z,4.38
2022-09-12T21:23:40.941Z,5.07
2022-09-12T21:26:08.429Z,4.40
2022-09-12T21:31:03.326Z,4.78
2022-09-12T21:33:32.414Z,4.40
2022-09-12T21:36:04.582Z,4.45
2022-09-12T21:38:32.195Z,5.22
2022-09-12T21:41:07.220Z,4.57
2022-09-12T21:43:35.219Z,5.28
2022-09-12T21:46:02.502Z,4.93
2022-09-12T21:48:30.635Z,5.20
2022-09-12T21:50:58.081Z,5.15
2022-09-12T21:58:19.591Z,4.75
2022-09-12T22:00:47.392Z,5.28
2022-09-12T22:03:15.480Z,5.40
2022-09-12T22:05:43.168Z,5.45
2022-09-12T22:08:11.325Z,5.65
2022-09-12T22:10:40.819Z,5.57
2022-09-12T22:13:08.141Z,5.25
2022-09-12T22:15:42.302Z,5.55
2022-09-12T22:18:09.261Z,5.10
2022-09-12T22:20:36.302Z,5.13
2022-09-12T22:23:24.825Z,5.20
2022-09-12T22:25:54.968Z,5.47
2022-09-12T22:28:25.123Z,4.57
2022-09-12T22:30:54.185Z,4.75
2022-09-12T22:33:21.477Z,5.07
2022-09-12T22:35:48.504Z,6.18
2022-09-12T22:38:15.680Z,5.10
2022-09-12T22:40:42.984Z,5.40
2022-09-12T22:43:12.553Z,5.68
2022-09-12T22:45:42.941Z,5.88
2022-09-12T22:48:10.100Z,5.32
2022-09-12T22:50:36.996Z,4.75
2022-09-12T22:53:04.129Z,5.65
2022-09-12T22:55:31.086Z,5.10
2022-09-12T22:57:58.199Z,5.90
2022-09-12T23:00:27.925Z,5.80
2022-09-12T23:02:55.425Z,5.63
2022-09-12T23:05:22.420Z,4.63
2022-09-12T23:07:51.856Z,4.78
2022-09-12T23:10:18.825Z,5.57
2022-09-12T23:12:45.917Z,5.70
2022-09-12T23:15:13.344Z,5.00
2022-09-12T23:17:40.470Z,4.40
2022-09-12T23:20:07.933Z,5.10
2022-09-12T23:22:36.973Z,5.10
2022-09-12T23:25:04.635Z,4.68
2022-09-12T23:27:31.708Z,5.40
2022-09-12T23:29:58.602Z,5.30
2022-09-12T23:32:26.612Z,4.95
2022-09-12T23:34:53.760Z,5.93
2022-09-12T23:37:21.767Z,4.95
2022-09-12T23:39:49.715Z,5.30
2022-09-12T23:42:17.334Z,4.85
2022-09-12T23:47:11.380Z,4.72
2022-09-12T23:49:38.790Z,5.15
2022-09-12T23:52:05.843Z,5.00
2022-09-12T23:54:32.864Z,4.93
2022-09-12T23:57:00.049Z,4.57
2022-09-12T23:59:27.129Z,4.72
